Time,TemperatureF,DewpointF,PressureIn,WindDirection,WindDirectionDegrees,WindSpeedMPH,WindSpeedGustMPH,Humidity,HourlyPrecipIn,Conditions,Clouds,dailyrainin,SolarRadiationWatts/m^2,SoftwareType,DateUTC
2013-01-24 00:01:00,15.0,13.0,-100.00,NE,49,2.0,3.0,91,0.00,,,0.00,0.000000,,2013-01-24 05:01:00,
2013-01-24 00:33:00,15.0,13.0,-100.00,NE,49,2.0,3.0,91,0.00,,,0.00,0.000000,,2013-01-24 05:33:00,
2013-01-24 00:43:00,15.0,13.0,-100.00,NE,49,2.0,3.0,91,0.00,,,0.00,0.000000,,2013-01-24 05:43:00,
2013-01-24 00:53:00,15.0,13.0,-100.00,NE,49,2.0,3.0,91,0.00,,,0.00,0.000000,,2013-01-24 05:53:00,
2013-01-24 01:01:00,15.0,13.0,-100.00,NE,39,2.0,4.0,91,0.00,,,0.00,0.000000,,2013-01-24 06:01:00,
2013-01-24 01:33:00,15.0,13.0,-100.00,NE,39,2.0,4.0,91,0.00,,,0.00,0.000000,,2013-01-24 06:33:00,
2013-01-24 01:42:00,15.0,13.0,-100.00,NE,39,2.0,4.0,91,0.00,,,0.00,0.000000,,2013-01-24 06:42:00,
2013-01-24 01:53:00,15.0,13.0,-100.00,NE,39,2.0,4.0,91,0.00,,,0.00,0.000000,,2013-01-24 06:53:00,
2013-01-24 02:01:00,16.0,14.0,-100.00,North,9,3.0,13.0,90,0.00,,,0.00,0.000000,,2013-01-24 07:01:00,
2013-01-24 02:23:00,16.0,14.0,-100.00,North,9,3.0,13.0,90,0.00,,,0.00,0.000000,,2013-01-24 07:23:00,
2013-01-24 02:34:00,16.0,14.0,-100.00,North,9,3.0,13.0,90,0.00,,,0.00,0.000000,,2013-01-24 07:34:00,
2013-01-24 02:43:00,16.0,14.0,-100.00,North,9,3.0,13.0,90,0.00,,,0.00,0.000000,,2013-01-24 07:43:00,
2013-01-24 02:53:00,16.0,14.0,-100.00,North,9,3.0,13.0,90,0.00,,,0.00,0.000000,,2013-01-24 07:53:00,
2013-01-24 03:01:00,16.0,13.0,-100.00,North,3,7.0,16.0,86,0.00,,,0.00,0.000000,,2013-01-24 08:01:00,
2013-01-24 03:33:00,16.0,13.0,-100.00,North,3,7.0,16.0,86,0.00,,,0.00,0.000000,,2013-01-24 08:33:00,
2013-01-24 03:43:00,16.0,13.0,-100.00,North,3,7.0,16.0,86,0.00,,,0.00,0.000000,,2013-01-24 08:43:00,
2013-01-24 03:53:00,16.0,13.0,-100.00,North,3,7.0,16.0,86,0.00,,,0.00,0.000000,,2013-01-24 08:53:00,
2013-01-24 04:01:00,14.0,10.0,-100.00,North,10,6.0,16.0,85,0.00,,,0.00,0.000000,,2013-01-24 09:01:00,
2013-01-24 04:34:00,14.0,10.0,-100.00,North,10,6.0,16.0,85,0.00,,,0.00,0.000000,,2013-01-24 09:34:00,
2013-01-24 04:43:00,14.0,10.0,-100.00,North,10,6.0,16.0,85,0.00,,,0.00,0.000000,,2013-01-24 09:43:00,
2013-01-24 04:53:00,14.0,10.0,-100.00,North,10,6.0,16.0,85,0.00,,,0.00,0.000000,,2013-01-24 09:53:00,
2013-01-24 05:01:00,13.0,10.0,-100.00,North,5,6.0,16.0,86,0.00,,,0.00,0.000000,,2013-01-24 10:01:00,
2013-01-24 05:34:00,13.0,10.0,-100.00,North,5,6.0,16.0,86,0.00,,,0.00,0.000000,,2013-01-24 10:34:00,
2013-01-24 05:43:00,13.0,10.0,-100.00,North,5,6.0,16.0,86,0.00,,,0.00,0.000000,,2013-01-24 10:43:00,
2013-01-24 05:53:00,13.0,10.0,-100.00,North,5,6.0,16.0,86,0.00,,,0.00,0.000000,,2013-01-24 10:53:00,
2013-01-24 06:01:00,12.0,6.0,-100.00,NNE,25,8.0,20.0,76,0.00,,,0.00,0.000000,,2013-01-24 11:01:00,
2013-01-24 06:23:00,12.0,6.0,-100.00,NNE,25,8.0,20.0,76,0.00,,,0.00,0.000000,,2013-01-24 11:23:00,
2013-01-24 06:33:00,12.0,6.0,-100.00,NNE,25,8.0,20.0,76,0.00,,,0.00,0.000000,,2013-01-24 11:33:00,
2013-01-24 06:43:00,12.0,6.0,-100.00,NNE,25,8.0,20.0,76,0.00,,,0.00,0.000000,,2013-01-24 11:43:00,
2013-01-24 06:53:00,12.0,6.0,-100.00,NNE,25,8.0,20.0,76,0.00,,,0.00,0.000000,,2013-01-24 11:53:00,
2013-01-24 07:01:00,10.0,5.0,-100.00,NNE,31,8.0,17.0,78,0.00,,,0.00,0.000000,,2013-01-24 12:01:00,
2013-01-24 07:33:00,10.0,5.0,-100.00,NNE,31,8.0,17.0,78,0.00,,,0.00,0.000000,,2013-01-24 12:33:00,
2013-01-24 07:43:00,10.0,5.0,-100.00,NNE,31,8.0,17.0,78,0.00,,,0.00,0.000000,,2013-01-24 12:43:00,
2013-01-24 07:53:00,10.0,5.0,-100.00,NNE,31,8.0,17.0,78,0.00,,,0.00,0.000000,,2013-01-24 12:53:00,
2013-01-24 08:01:00,9.0,2.0,-100.00,NNE,15,7.0,17.0,71,0.00,,,0.00,10.000000,,2013-01-24 13:01:00,
2013-01-24 08:33:00,9.0,2.0,-100.00,NNE,15,7.0,17.0,71,0.00,,,0.00,10.000000,,2013-01-24 13:33:00,
2013-01-24 08:43:00,9.0,2.0,-100.00,NNE,15,7.0,17.0,71,0.00,,,0.00,10.000000,,2013-01-24 13:43:00,
2013-01-24 08:53:00,9.0,2.0,-100.00,NNE,15,7.0,17.0,71,0.00,,,0.00,10.000000,,2013-01-24 13:53:00,
2013-01-24 09:01:00,11.0,3.0,-100.00,NNE,28,7.0,12.0,71,0.00,,,0.00,112.000000,,2013-01-24 14:01:00,
2013-01-24 09:23:00,11.0,3.0,-100.00,NNE,28,7.0,12.0,71,0.00,,,0.00,112.000000,,2013-01-24 14:23:00,
2013-01-24 09:33:00,11.0,3.0,-100.00,NNE,28,7.0,12.0,71,0.00,,,0.00,112.000000,,2013-01-24 14:33:00,
2013-01-24 09:43:00,11.0,3.0,-100.00,NNE,28,7.0,12.0,71,0.00,,,0.00,112.000000,,2013-01-24 14:43:00,
2013-01-24 09:54:00,11.0,3.0,-100.00,NNE,28,7.0,12.0,71,0.00,,,0.00,112.000000,,2013-01-24 14:54:00,
2013-01-24 10:01:00,11.0,6.0,-100.00,NNE,27,6.0,14.0,81,0.00,,,0.00,172.000000,,2013-01-24 15:01:00,
2013-01-24 10:33:00,11.0,6.0,-100.00,NNE,27,6.0,14.0,81,0.00,,,0.00,172.000000,,2013-01-24 15:33:00,
2013-01-24 10:43:00,11.0,6.0,-100.00,NNE,27,6.0,14.0,81,0.00,,,0.00,172.000000,,2013-01-24 15:43:00,
2013-01-24 10:53:00,11.0,6.0,-100.00,NNE,27,6.0,14.0,81,0.00,,,0.00,172.000000,,2013-01-24 15:53:00,
2013-01-24 11:01:00,12.0,-1.0,-100.00,NE,35,10.0,15.0,55,0.00,,,0.00,375.000000,,2013-01-24 16:01:00,
2013-01-24 11:33:00,12.0,-1.0,-100.00,NE,35,10.0,15.0,55,0.00,,,0.00,375.000000,,2013-01-24 16:33:00,
2013-01-24 11:43:00,12.0,-1.0,-100.00,NE,35,10.0,15.0,55,0.00,,,0.00,375.000000,,2013-01-24 16:43:00,
2013-01-24 12:01:00,13.0,0.0,-100.00,NE,37,9.0,17.0,55,0.00,,,0.00,407.000000,,2013-01-24 17:01:00,
2013-01-24 12:33:00,13.0,0.0,-100.00,NE,37,9.0,17.0,55,0.00,,,0.00,407.000000,,2013-01-24 17:33:00,
2013-01-24 12:43:00,13.0,0.0,-100.00,NE,37,9.0,17.0,55,0.00,,,0.00,407.000000,,2013-01-24 17:43:00,
2013-01-24 12:52:00,13.0,0.0,-100.00,NE,37,9.0,17.0,55,0.00,,,0.00,407.000000,,2013-01-24 17:52:00,
2013-01-24 13:01:00,14.0,2.0,-100.00,NE,43,9.0,15.0,58,0.00,,,0.00,501.000000,,2013-01-24 18:01:00,
2013-01-24 13:33:00,14.0,2.0,-100.00,NE,43,9.0,15.0,58,0.00,,,0.00,501.000000,,2013-01-24 18:33:00,
2013-01-24 13:43:00,14.0,2.0,-100.00,NE,43,9.0,15.0,58,0.00,,,0.00,501.000000,,2013-01-24 18:43:00,
2013-01-24 13:53:00,14.0,2.0,-100.00,NE,43,9.0,15.0,58,0.00,,,0.00,501.000000,,2013-01-24 18:53:00,
2013-01-24 14:01:00,13.0,-3.0,-100.00,NE,38,9.0,15.0,49,0.00,,,0.00,346.000000,,2013-01-24 19:01:00,
2013-01-24 14:22:00,13.0,-3.0,-100.00,NE,38,9.0,15.0,49,0.00,,,0.00,346.000000,,2013-01-24 19:22:00,
2013-01-24 14:33:00,13.0,-3.0,-100.00,NE,38,9.0,15.0,49,0.00,,,0.00,346.000000,,2013-01-24 19:33:00,
2013-01-24 14:42:00,13.0,-3.0,-100.00,NE,38,9.0,15.0,49,0.00,,,0.00,346.000000,,2013-01-24 19:42:00,
2013-01-24 14:53:00,13.0,-3.0,-100.00,NE,38,9.0,15.0,49,0.00,,,0.00,346.000000,,2013-01-24 19:53:00,
2013-01-24 15:01:00,12.0,-3.0,-100.00,NE,39,9.0,15.0,49,0.00,,,0.00,268.000000,,2013-01-24 20:01:00,
2013-01-24 15:33:00,12.0,-3.0,-100.00,NE,39,9.0,15.0,49,0.00,,,0.00,268.000000,,2013-01-24 20:33:00,
2013-01-24 15:43:00,12.0,-3.0,-100.00,NE,39,9.0,15.0,49,0.00,,,0.00,268.000000,,2013-01-24 20:43:00,
2013-01-24 15:53:00,12.0,-3.0,-100.00,NE,39,9.0,15.0,49,0.00,,,0.00,268.000000,,2013-01-24 20:53:00,
2013-01-24 16:01:00,12.0,-1.0,-100.00,NE,34,7.0,13.0,55,0.00,,,0.00,295.000000,,2013-01-24 21:01:00,
2013-01-24 16:23:00,12.0,-1.0,-100.00,NE,34,7.0,13.0,55,0.00,,,0.00,295.000000,,2013-01-24 21:23:00,
2013-01-24 16:33:00,12.0,-1.0,-100.00,NE,34,7.0,13.0,55,0.00,,,0.00,295.000000,,2013-01-24 21:33:00,
2013-01-24 16:43:00,12.0,-1.0,-100.00,NE,34,7.0,13.0,55,0.00,,,0.00,295.000000,,2013-01-24 21:43:00,
2013-01-24 16:53:00,12.0,-1.0,-100.00,NE,34,7.0,13.0,55,0.00,,,0.00,295.000000,,2013-01-24 21:53:00,
2013-01-24 17:01:00,10.0,-1.0,-100.00,NE,37,6.0,11.0,59,0.00,,,0.00,89.000000,,2013-01-24 22:01:00,
2013-01-24 17:33:00,10.0,-1.0,-100.00,NE,37,6.0,11.0,59,0.00,,,0.00,89.000000,,2013-01-24 22:33:00,
2013-01-24 17:42:00,10.0,-1.0,-100.00,NE,37,6.0,11.0,59,0.00,,,0.00,89.000000,,2013-01-24 22:42:00,
2013-01-24 17:53:00,10.0,-1.0,-100.00,NE,37,6.0,11.0,59,0.00,,,0.00,89.000000,,2013-01-24 22:53:00,
2013-01-24 18:01:00,9.0,-1.0,-100.00,NE,37,5.0,8.0,62,0.00,,,0.00,13.000000,,2013-01-24 23:01:00,
2013-01-24 18:32:00,9.0,-1.0,-100.00,NE,37,5.0,8.0,62,0.00,,,0.00,13.000000,,2013-01-24 23:32:00,
2013-01-24 18:42:00,9.0,-1.0,-100.00,NE,37,5.0,8.0,62,0.00,,,0.00,13.000000,,2013-01-24 23:42:00,
2013-01-24 18:52:00,9.0,-1.0,-100.00,NE,37,5.0,8.0,62,0.00,,,0.00,13.000000,,2013-01-24 23:52:00,
2013-01-24 19:01:00,8.0,-1.0,-100.00,NE,46,2.0,7.0,65,0.00,,,0.00,0.000000,,2013-01-25 00:01:00,
2013-01-24 19:22:00,8.0,-1.0,-100.00,NE,46,2.0,7.0,65,0.00,,,0.00,0.000000,,2013-01-25 00:22:00,
2013-01-24 19:32:00,8.0,-1.0,-100.00,NE,46,2.0,7.0,65,0.00,,,0.00,0.000000,,2013-01-25 00:32:00,
2013-01-24 19:42:00,8.0,-1.0,-100.00,NE,46,2.0,7.0,65,0.00,,,0.00,0.000000,,2013-01-25 00:42:00,
2013-01-24 19:53:00,8.0,-1.0,-100.00,NE,46,2.0,7.0,65,0.00,,,0.00,0.000000,,2013-01-25 00:53:00,
2013-01-24 20:01:00,8.0,-1.0,-100.00,NNE,25,3.0,7.0,65,0.00,,,0.00,0.000000,,2013-01-25 01:01:00,
2013-01-24 20:32:00,8.0,-1.0,-100.00,NNE,25,3.0,7.0,65,0.00,,,0.00,0.000000,,2013-01-25 01:32:00,
2013-01-24 20:43:00,8.0,-1.0,-100.00,NNE,25,3.0,7.0,65,0.00,,,0.00,0.000000,,2013-01-25 01:43:00,
2013-01-24 20:52:00,8.0,-1.0,-100.00,NNE,25,3.0,7.0,65,0.00,,,0.00,0.000000,,2013-01-25 01:52:00,
2013-01-24 21:01:00,7.0,-2.0,-100.00,WNW,300,3.0,5.0,67,0.00,,,0.00,0.000000,,2013-01-25 02:01:00,
2013-01-24 21:22:00,7.0,-2.0,-100.00,WNW,300,3.0,5.0,67,0.00,,,0.00,0.000000,,2013-01-25 02:22:00,
2013-01-24 21:33:00,7.0,-2.0,-100.00,WNW,300,3.0,5.0,67,0.00,,,0.00,0.000000,,2013-01-25 02:33:00,
2013-01-24 21:43:00,7.0,-2.0,-100.00,WNW,300,3.0,5.0,67,0.00,,,0.00,0.000000,,2013-01-25 02:43:00,
2013-01-24 21:53:00,7.0,-2.0,-100.00,WNW,300,3.0,5.0,67,0.00,,,0.00,0.000000,,2013-01-25 02:53:00,
2013-01-24 22:01:00,6.0,-2.0,-100.00,NW,311,2.0,5.0,69,0.00,,,0.00,0.000000,,2013-01-25 03:01:00,
2013-01-24 22:33:00,6.0,-2.0,-100.00,NW,311,2.0,5.0,69,0.00,,,0.00,0.000000,,2013-01-25 03:33:00,
2013-01-24 22:42:00,6.0,-2.0,-100.00,NW,311,2.0,5.0,69,0.00,,,0.00,0.000000,,2013-01-25 03:42:00,
2013-01-24 22:53:00,6.0,-2.0,-100.00,NW,311,2.0,5.0,69,0.00,,,0.00,0.000000,,2013-01-25 03:53:00,
2013-01-24 23:01:00,5.0,-2.0,-100.00,NNE,22,2.0,5.0,71,0.00,,,0.00,0.000000,,2013-01-25 04:01:00,
2013-01-24 23:32:00,5.0,-2.0,-100.00,NNE,22,2.0,5.0,71,0.00,,,0.00,0.000000,,2013-01-25 04:32:00,
2013-01-24 23:42:00,5.0,-2.0,-100.00,NNE,22,2.0,5.0,71,0.00,,,0.00,0.000000,,2013-01-25 04:42:00,
2013-01-24 23:52:00,5.0,-2.0,-100.00,NNE,22,2.0,5.0,71,0.00,,,0.00,0.000000,,2013-01-25 04:52:00,